Time;durP1;ratioP1;P1;durP2;ratioP2;P2;SDS_P1;SDS_P2;PMS_P1;PMS_P2;Temp;Humidity;BMP_temperature;BMP_pressure;BME280_temperature;BME280_humidity;BME280_pressure;Samples;Min_cycle;Max_cycle;Signal;HPM_P1;HPM_P2
2022/10/18 00:01:03;;;;;;;0.82;0.82;;;12.50;99.90;;;;;;5088181;28;20048;-83
2022/10/18 00:03:29;;;;;;;0.30;0.30;;;12.50;99.90;;;;;;5091212;28;20031;-82
2022/10/18 00:05:55;;;;;;;0.50;0.50;;;12.40;99.90;;;;;;5092190;28;20048;-83
2022/10/18 00:08:21;;;;;;;0.43;0.43;;;12.40;99.90;;;;;;5073890;28;20543;-83
2022/10/18 00:10:47;;;;;;;;;;;12.40;99.90;;;;;;5086383;28;20481;-83
2022/10/18 00:13:12;;;;;;;0.43;0.43;;;12.40;99.90;;;;;;5063688;28;19916;-83
2022/10/18 00:15:38;;;;;;;0.40;0.40;;;12.30;99.90;;;;;;5071950;28;20400;-83
2022/10/18 00:18:38;;;;;;;0.40;0.40;;;12.30;99.90;;;;;;5093219;28;20056;-83
2022/10/18 00:21:08;;;;;;;2.38;0.73;;;12.20;99.90;;;;;;5064375;28;20040;-83
2022/10/18 00:23:35;;;;;;;0.50;0.50;;;12.20;99.90;;;;;;5069572;28;20158;-83
2022/10/18 00:26:04;;;;;;;0.38;0.38;;;12.20;99.90;;;;;;5085346;28;20485;-83
2022/10/18 00:28:30;;;;;;;0.45;0.45;;;12.20;99.90;;;;;;5092752;28;20028;-83
2022/10/18 00:30:56;;;;;;;0.28;0.28;;;12.10;99.90;;;;;;5075987;28;20500;-82
2022/10/18 00:33:22;;;;;;;0.73;0.63;;;12.10;99.90;;;;;;5084127;28;20119;-83
2022/10/18 00:35:49;;;;;;;0.35;0.35;;;12.20;99.90;;;;;;5095172;28;20056;-83
2022/10/18 00:38:15;;;;;;;0.55;0.55;;;12.20;99.90;;;;;;5087932;28;20052;-83
2022/10/18 00:40:40;;;;;;;0.40;0.40;;;12.20;99.90;;;;;;5090243;28;20051;-83
2022/10/18 00:43:13;;;;;;;0.52;0.52;;;12.20;99.90;;;;;;5069943;28;20044;-83
2022/10/18 00:45:39;;;;;;;0.30;0.30;;;12.20;99.90;;;;;;5082367;28;20496;-82
2022/10/18 00:48:05;;;;;;;0.57;0.57;;;12.30;99.90;;;;;;5088805;28;20044;-83
2022/10/18 00:50:33;;;;;;;0.80;0.80;;;12.40;99.90;;;;;;5074815;28;20043;-83
2022/10/18 00:53:03;;;;;;;5.70;1.17;;;12.50;99.90;;;;;;5062568;28;20040;-83
2022/10/18 00:55:31;;;;;;;1.38;0.55;;;12.50;99.90;;;;;;5085591;28;20048;-83
2022/10/18 00:57:57;;;;;;;2.63;0.68;;;12.60;99.90;;;;;;5090257;28;20470;-83
2022/10/18 01:00:29;;;;;;;1.13;1.10;;;12.60;99.90;;;;;;5092975;28;20096;-82
2022/10/18 01:02:54;;;;;;;1.08;1.08;;;12.70;99.90;;;;;;5089185;28;20448;-83
2022/10/18 01:05:20;;;;;;;1.80;1.52;;;12.70;99.90;;;;;;5075132;28;20040;-82
2022/10/18 01:08:18;;;;;;;0.88;0.88;;;12.70;99.90;;;;;;5076528;28;20032;-83
2022/10/18 01:10:53;;;;;;;0.40;0.40;;;12.70;99.90;;;;;;5066653;28;20626;-82
2022/10/18 01:13:32;;;;;;;0.40;0.40;;;12.70;99.90;;;;;;5087597;28;20047;-81
2022/10/18 01:16:00;;;;;;;2.38;2.28;;;12.70;99.90;;;;;;5083625;28;20051;-82
2022/10/18 01:18:58;;;;;;;1.05;0.95;;;12.70;99.90;;;;;;5090357;28;20040;-82
2022/10/18 01:21:55;;;;;;;1.20;1.20;;;12.70;99.90;;;;;;5096646;28;20057;-82
2022/10/18 01:24:47;;;;;;;1.45;0.57;;;12.70;99.90;;;;;;5080513;28;20036;-82
2022/10/18 01:27:31;;;;;;;0.50;0.50;;;12.60;99.90;;;;;;5081840;28;20442;-83
2022/10/18 01:30:17;;;;;;;0.40;0.40;;;12.60;99.90;;;;;;5076060;28;20549;-82
2022/10/18 01:32:48;;;;;;;1.95;1.85;;;12.60;99.90;;;;;;5058731;28;20035;-83
2022/10/18 01:35:18;;;;;;;0.73;0.68;;;12.60;99.90;;;;;;5074303;28;20047;-82
2022/10/18 01:37:47;;;;;;;0.73;0.73;;;12.60;99.90;;;;;;5075228;28;20060;-82
2022/10/18 01:40:17;;;;;;;0.45;0.45;;;12.60;99.90;;;;;;5083278;28;20392;-82
2022/10/18 01:42:45;;;;;;;0.40;0.40;;;12.60;99.90;;;;;;5088819;28;20492;-84
2022/10/18 01:45:12;;;;;;;0.30;0.30;;;12.50;99.90;;;;;;5087047;28;20038;-84
2022/10/18 01:47:39;;;;;;;0.30;0.30;;;12.50;99.90;;;;;;5070500;28;20382;-83
2022/10/18 01:50:05;;;;;;;0.75;0.75;;;12.50;99.90;;;;;;5071622;28;20511;-83
2022/10/18 01:52:31;;;;;;;1.65;0.68;;;12.50;99.90;;;;;;5087693;28;20048;-81
2022/10/18 01:54:59;;;;;;;0.30;0.30;;;12.50;99.90;;;;;;5064184;28;20119;-82
2022/10/18 01:57:49;;;;;;;0.50;0.50;;;12.60;99.90;;;;;;5083060;28;20139;-81
2022/10/18 02:00:26;;;;;;;0.90;0.90;;;12.50;99.90;;;;;;5080833;28;22031;-82
2022/10/18 02:03:19;;;;;;;0.30;0.30;;;12.60;99.90;;;;;;5071758;28;20039;-82
2022/10/18 02:05:51;;;;;;;0.30;0.30;;;12.60;99.90;;;;;;5088733;28;20040;-82
2022/10/18 02:08:31;;;;;;;0.55;0.55;;;12.60;99.90;;;;;;5083038;28;20048;-81
2022/10/18 02:11:07;;;;;;;0.77;0.77;;;12.60;99.90;;;;;;5085015;28;20047;-82
2022/10/18 02:13:40;;;;;;;0.30;0.30;;;12.70;99.90;;;;;;5075959;28;20075;-82
2022/10/18 02:16:15;;;;;;;0.65;0.65;;;12.70;99.90;;;;;;5074410;28;20102;-82
2022/10/18 02:18:50;;;;;;;0.40;0.40;;;12.70;99.90;;;;;;5085220;28;20388;-82
2022/10/18 02:21:20;;;;;;;0.95;0.82;;;12.70;99.90;;;;;;5067879;28;20048;-82
2022/10/18 02:23:46;;;;;;;0.40;0.40;;;12.70;99.90;;;;;;5082852;28;20502;-80
2022/10/18 02:26:14;;;;;;;1.35;1.35;;;12.70;99.90;;;;;;5074280;28;20047;-82
2022/10/18 02:28:40;;;;;;;0.20;0.20;;;12.70;99.90;;;;;;5090503;28;20036;-82
2022/10/18 02:31:26;;;;;;;0.50;0.50;;;12.70;99.90;;;;;;5058290;28;20126;-81
2022/10/18 02:34:18;;;;;;;0.57;0.57;;;12.60;99.90;;;;;;5072162;28;20405;-83
2022/10/18 02:36:56;;;;;;;0.35;0.35;;;12.60;99.90;;;;;;5083545;28;20147;-81
2022/10/18 02:39:26;;;;;;;0.43;0.43;;;12.50;99.90;;;;;;5082279;28;20083;-83
2022/10/18 02:41:53;;;;;;;0.30;0.30;;;12.50;99.90;;;;;;5054543;28;20036;-82
2022/10/18 02:44:19;;;;;;;0.77;0.77;;;12.50;99.90;;;;;;5071401;28;20044;-82
2022/10/18 02:46:46;;;;;;;0.85;0.63;;;12.40;99.90;;;;;;5064933;28;20036;-82
2022/10/18 02:49:12;;;;;;;0.98;0.98;;;12.40;99.90;;;;;;5086660;28;20051;-82
2022/10/18 02:51:37;;;;;;;0.60;0.60;;;12.40;99.90;;;;;;5053579;28;20494;-81
2022/10/18 02:54:03;;;;;;;0.50;0.50;;;12.40;99.90;;;;;;5082069;28;20040;-82
2022/10/18 02:56:32;;;;;;;0.82;0.82;;;12.30;99.90;;;;;;5088573;28;20128;-82
2022/10/18 02:58:58;;;;;;;1.85;1.75;;;12.30;99.90;;;;;;5090541;28;20071;-82
2022/10/18 03:01:24;;;;;;;0.80;0.80;;;12.30;99.90;;;;;;5083721;28;20132;-82
2022/10/18 03:03:50;;;;;;;0.60;0.60;;;12.30;99.90;;;;;;5067347;28;20043;-82
2022/10/18 03:06:16;;;;;;;0.88;0.70;;;12.20;99.90;;;;;;5068598;28;20071;-82
2022/10/18 03:08:41;;;;;;;0.40;0.40;;;12.20;99.90;;;;;;5073022;28;20082;-83
2022/10/18 03:11:07;;;;;;;0.65;0.60;;;12.20;99.90;;;;;;5070543;28;20135;-82
2022/10/18 03:13:33;;;;;;;0.30;0.30;;;12.20;99.90;;;;;;5070436;28;20036;-82
2022/10/18 03:15:59;;;;;;;0.40;0.40;;;12.20;99.90;;;;;;5081504;28;20474;-82
2022/10/18 03:18:25;;;;;;;;;;;12.10;99.90;;;;;;5069506;28;20397;-82
2022/10/18 03:20:51;;;;;;;0.73;0.73;;;12.20;99.90;;;;;;5084471;28;19920;-82
2022/10/18 03:23:16;;;;;;;0.55;0.55;;;12.10;99.90;;;;;;5088980;28;20051;-82
2022/10/18 03:25:42;;;;;;;0.50;0.50;;;12.10;99.90;;;;;;5066957;28;20048;-83
2022/10/18 03:28:08;;;;;;;0.30;0.30;;;12.10;99.90;;;;;;5083627;28;20626;-82
2022/10/18 03:30:33;;;;;;;0.40;0.40;;;12.10;99.90;;;;;;5090596;28;20059;-82
2022/10/18 03:32:59;;;;;;;0.45;0.45;;;12.00;99.90;;;;;;5072728;28;20060;-83
2022/10/18 03:35:25;;;;;;;0.38;0.38;;;12.10;99.90;;;;;;5084645;28;20044;-82
2022/10/18 03:37:50;;;;;;;0.40;0.40;;;12.00;99.90;;;;;;5062140;28;20557;-83
2022/10/18 03:40:16;;;;;;;0.40;0.40;;;12.00;99.90;;;;;;5069064;28;20048;-83
2022/10/18 03:42:42;;;;;;;0.55;0.55;;;12.10;99.90;;;;;;5071315;28;20053;-83
2022/10/18 03:45:08;;;;;;;0.20;0.20;;;12.10;99.90;;;;;;5080907;28;20533;-82
2022/10/18 03:47:34;;;;;;;0.55;0.55;;;12.10;99.90;;;;;;5080821;28;20043;-83
2022/10/18 03:49:59;;;;;;;0.30;0.30;;;12.10;99.90;;;;;;5088012;28;20040;-82
2022/10/18 03:52:25;;;;;;;0.45;0.45;;;12.10;99.90;;;;;;5090982;28;20083;-83
2022/10/18 03:54:50;;;;;;;1.13;1.02;;;12.10;99.90;;;;;;5086399;28;20048;-83
2022/10/18 03:57:16;;;;;;;0.30;0.30;;;12.10;99.90;;;;;;5081186;28;20485;-84
2022/10/18 03:59:42;;;;;;;0.38;0.38;;;12.10;99.90;;;;;;5054304;28;20047;-84
2022/10/18 04:02:08;;;;;;;0.47;0.47;;;12.10;99.90;;;;;;5102130;28;20044;-84
2022/10/18 04:04:33;;;;;;;0.40;0.40;;;12.10;99.90;;;;;;5085223;28;20073;-84
2022/10/18 04:06:59;;;;;;;0.45;0.45;;;12.10;99.90;;;;;;5070986;28;20473;-82
2022/10/18 04:09:25;;;;;;;0.50;0.50;;;12.10;99.90;;;;;;5076826;28;20461;-83
2022/10/18 04:11:51;;;;;;;1.02;0.82;;;12.10;99.90;;;;;;5082628;28;20048;-83
2022/10/18 04:14:17;;;;;;;0.52;0.52;;;12.00;99.90;;;;;;5091284;28;20401;-82
2022/10/18 04:16:42;;;;;;;0.68;0.68;;;12.00;99.90;;;;;;5075299;28;20482;-82
2022/10/18 04:19:08;;;;;;;0.40;0.40;;;12.00;99.90;;;;;;5084532;28;20107;-83
2022/10/18 04:21:34;;;;;;;0.68;0.68;;;12.00;99.90;;;;;;5069579;28;20040;-82
2022/10/18 04:24:00;;;;;;;0.50;0.50;;;11.90;99.90;;;;;;5084451;28;20044;-83
2022/10/18 04:26:25;;;;;;;0.30;0.30;;;11.90;99.90;;;;;;5088004;28;20135;-83
2022/10/18 04:28:51;;;;;;;0.43;0.43;;;11.90;99.90;;;;;;5084946;28;20122;-81
2022/10/18 04:31:16;;;;;;;0.40;0.40;;;11.90;99.90;;;;;;5084480;28;20040;-83
2022/10/18 04:33:43;;;;;;;;;;;11.90;99.90;;;;;;5077797;28;20048;-82
2022/10/18 04:36:08;;;;;;;0.35;0.35;;;11.90;99.90;;;;;;5075658;28;19916;-82
2022/10/18 04:38:34;;;;;;;0.40;0.40;;;11.80;99.90;;;;;;5085283;28;20044;-84
2022/10/18 04:41:00;;;;;;;0.43;0.43;;;11.80;99.90;;;;;;5084659;28;20565;-83
2022/10/18 04:43:25;;;;;;;0.70;0.70;;;11.80;99.90;;;;;;5087502;28;20087;-84
2022/10/18 04:45:51;;;;;;;0.43;0.43;;;11.80;99.90;;;;;;5076124;28;20047;-82
2022/10/18 04:48:18;;;;;;;0.60;0.60;;;11.80;99.90;;;;;;5091141;28;20055;-83
2022/10/18 04:50:46;;;;;;;1.20;0.80;;;11.80;99.90;;;;;;5089417;28;20047;-82
2022/10/18 04:53:12;;;;;;;0.57;0.57;;;11.70;99.90;;;;;;5084768;28;20052;-82
2022/10/18 04:55:37;;;;;;;0.55;0.55;;;11.70;99.90;;;;;;5080087;28;20048;-83
2022/10/18 04:58:03;;;;;;;0.75;0.75;;;11.70;99.90;;;;;;5054382;28;20036;-84
2022/10/18 05:00:29;;;;;;;0.40;0.40;;;11.60;99.90;;;;;;5068371;28;20071;-82
2022/10/18 05:02:57;;;;;;;1.55;1.10;;;11.60;99.90;;;;;;5084295;28;20417;-83
2022/10/18 05:05:23;;;;;;;0.45;0.45;;;11.60;99.90;;;;;;5087149;28;20119;-83
2022/10/18 05:07:49;;;;;;;1.00;0.80;;;11.50;99.90;;;;;;5093519;28;20119;-82
2022/10/18 05:10:15;;;;;;;0.80;0.80;;;11.50;99.90;;;;;;5073097;28;20087;-83
2022/10/18 05:12:42;;;;;;;1.95;1.85;;;11.50;99.90;;;;;;5085808;28;20051;-83
2022/10/18 05:15:09;;;;;;;0.45;0.45;;;11.50;99.90;;;;;;5070665;28;20097;-83
2022/10/18 05:17:35;;;;;;;0.80;0.73;;;11.50;99.90;;;;;;5089907;28;20040;-83
2022/10/18 05:20:00;;;;;;;;;;;11.40;99.90;;;;;;5081552;28;20040;-84
2022/10/18 05:22:26;;;;;;;1.05;0.45;;;11.30;99.90;;;;;;5079385;28;20565;-83
2022/10/18 05:24:52;;;;;;;0.77;0.70;;;11.30;99.90;;;;;;5060965;28;20074;-83
2022/10/18 05:27:17;;;;;;;0.43;0.43;;;11.30;99.90;;;;;;5083124;28;20130;-82
2022/10/18 05:29:43;;;;;;;0.90;0.90;;;11.20;99.90;;;;;;5082141;28;20032;-83
2022/10/18 05:32:09;;;;;;;0.40;0.40;;;11.20;99.90;;;;;;5089830;28;20521;-82
2022/10/18 05:34:34;;;;;;;0.40;0.40;;;11.20;99.90;;;;;;5072216;28;20035;-82
2022/10/18 05:37:00;;;;;;;1.38;0.73;;;11.10;99.90;;;;;;5056726;28;20048;-82
2022/10/18 05:39:26;;;;;;;0.47;0.47;;;11.00;99.90;;;;;;5073370;28;20059;-83
2022/10/18 05:41:51;;;;;;;0.70;0.70;;;11.00;99.90;;;;;;5094991;28;20130;-83
2022/10/18 05:44:19;;;;;;;2.83;1.33;;;10.90;99.90;;;;;;5064562;28;20063;-84
2022/10/18 05:46:44;;;;;;;0.40;0.40;;;10.80;99.90;;;;;;5063059;28;20067;-82
2022/10/18 05:49:13;;;;;;;0.93;0.93;;;10.80;99.90;;;;;;5083952;28;20068;-86
2022/10/18 05:51:39;;;;;;;0.50;0.50;;;10.70;99.90;;;;;;5084664;28;20127;-86
2022/10/18 05:54:05;;;;;;;0.47;0.47;;;10.60;99.90;;;;;;5055330;28;20351;-85
2022/10/18 05:56:30;;;;;;;0.40;0.40;;;10.60;99.90;;;;;;5071038;28;20037;-88
2022/10/18 05:58:56;;;;;;;0.30;0.30;;;10.70;99.90;;;;;;5072569;28;20039;-88
2022/10/18 06:01:22;;;;;;;0.32;0.32;;;10.60;99.90;;;;;;5084241;28;20048;-88
2022/10/18 06:03:48;;;;;;;0.40;0.40;;;10.60;99.90;;;;;;5079062;28;20089;-88
2022/10/18 06:06:15;;;;;;;1.00;1.00;;;10.60;99.90;;;;;;5062808;28;20046;-88
2022/10/18 06:08:42;;;;;;;0.40;0.40;;;10.80;99.90;;;;;;5072880;28;20477;-87
2022/10/18 06:11:09;;;;;;;0.40;0.40;;;10.60;99.90;;;;;;5077470;28;20028;-87
2022/10/18 06:13:39;;;;;;;0.60;0.60;;;10.70;99.90;;;;;;5091675;28;20408;-85
2022/10/18 06:16:05;;;;;;;0.93;0.93;;;10.60;99.90;;;;;;5102390;28;20048;-87
2022/10/18 06:18:31;;;;;;;1.38;0.98;;;10.60;99.90;;;;;;5068048;28;20036;-88
2022/10/18 06:20:58;;;;;;;0.80;0.55;;;10.60;99.90;;;;;;5085681;28;20045;-88
2022/10/18 06:23:24;;;;;;;0.50;0.50;;;10.50;99.90;;;;;;5064800;28;20051;-87
2022/10/18 06:25:50;;;;;;;0.40;0.40;;;10.40;99.90;;;;;;5072658;28;20047;-88
2022/10/18 06:28:16;;;;;;;0.55;0.50;;;10.40;99.90;;;;;;5072314;28;20040;-88
2022/10/18 06:30:41;;;;;;;0.30;0.30;;;10.40;99.90;;;;;;5074689;28;20040;-85
2022/10/18 06:33:07;;;;;;;0.30;0.30;;;10.30;99.90;;;;;;5062102;28;20040;-85
2022/10/18 06:35:33;;;;;;;1.38;0.93;;;10.20;99.90;;;;;;5082202;28;20389;-84
2022/10/18 06:37:58;;;;;;;0.40;0.40;;;10.10;99.90;;;;;;5068319;28;20056;-85
2022/10/18 06:40:24;;;;;;;0.30;0.30;;;10.10;99.90;;;;;;5088137;28;20051;-85
2022/10/18 06:42:50;;;;;;;0.40;0.40;;;10.10;99.90;;;;;;5089234;28;20044;-85
2022/10/18 06:45:17;;;;;;;0.82;0.82;;;10.10;99.90;;;;;;5082020;28;20044;-85
2022/10/18 06:47:43;;;;;;;0.40;0.40;;;10.00;99.90;;;;;;5050073;28;20113;-85
2022/10/18 06:50:10;;;;;;;2.78;2.67;;;10.00;99.90;;;;;;5085598;28;20478;-85
2022/10/18 06:52:36;;;;;;;0.50;0.50;;;10.10;99.90;;;;;;5087955;28;20410;-86
2022/10/18 06:55:01;;;;;;;0.25;0.25;;;10.00;99.90;;;;;;5087969;28;20047;-86
2022/10/18 06:57:27;;;;;;;0.70;0.70;;;9.90;99.90;;;;;;5086373;28;20465;-86
2022/10/18 06:59:53;;;;;;;0.47;0.47;;;9.90;99.90;;;;;;5070878;28;20039;-86
2022/10/18 07:02:18;;;;;;;0.70;0.70;;;9.80;99.90;;;;;;5072813;28;20070;-85
2022/10/18 07:04:44;;;;;;;0.65;0.65;;;9.80;99.90;;;;;;5081842;28;20038;-86
2022/10/18 07:07:10;;;;;;;0.57;0.57;;;9.80;99.90;;;;;;5077584;28;20037;-85
2022/10/18 07:09:35;;;;;;;0.30;0.30;;;9.80;99.90;;;;;;5075661;28;20036;-86
2022/10/18 07:12:01;;;;;;;0.43;0.43;;;9.90;99.90;;;;;;5048014;28;20253;-86
2022/10/18 07:14:27;;;;;;;0.50;0.50;;;9.90;99.90;;;;;;5064044;28;20028;-86
2022/10/18 07:16:52;;;;;;;0.40;0.40;;;10.00;99.90;;;;;;5088415;28;20096;-86
2022/10/18 07:19:18;;;;;;;0.45;0.45;;;10.00;99.90;;;;;;5089252;28;20044;-86
2022/10/18 07:21:44;;;;;;;0.32;0.32;;;10.00;99.90;;;;;;5084674;28;20044;-86
2022/10/18 07:24:09;;;;;;;0.30;0.30;;;10.00;99.90;;;;;;5056428;28;20036;-86
2022/10/18 07:26:35;;;;;;;0.47;0.47;;;10.10;99.90;;;;;;5082421;28;20036;-83
2022/10/18 07:29:05;;;;;;;;;;;10.00;99.90;;;;;;5066103;28;20037;-86
2022/10/18 07:31:32;;;;;;;0.70;0.70;;;10.00;99.90;;;;;;5097493;28;19923;-86
2022/10/18 07:33:58;;;;;;;0.57;0.57;;;10.10;99.90;;;;;;5070424;28;20068;-86
2022/10/18 07:36:24;;;;;;;0.70;0.70;;;10.10;99.90;;;;;;5071988;28;20040;-86
2022/10/18 07:38:51;;;;;;;0.45;0.45;;;10.10;99.90;;;;;;5079418;28;20544;-86
2022/10/18 07:41:17;;;;;;;0.40;0.40;;;10.20;99.90;;;;;;5094297;28;20513;-86
2022/10/18 07:43:46;;;;;;;0.50;0.50;;;10.20;99.90;;;;;;5074958;28;20044;-85
2022/10/18 07:46:13;;;;;;;0.88;0.88;;;10.20;99.90;;;;;;5064611;28;20031;-85
2022/10/18 07:48:39;;;;;;;0.40;0.40;;;10.20;99.90;;;;;;5074793;28;20032;-86
2022/10/18 07:51:05;;;;;;;;;;;10.30;99.90;;;;;;5078504;28;20048;-86
2022/10/18 07:53:33;;;;;;;0.38;0.38;;;10.30;99.90;;;;;;5082047;28;20284;-86
2022/10/18 07:56:10;;;;;;;1.90;1.25;;;10.40;99.90;;;;;;5072089;28;20079;-86
2022/10/18 07:58:36;;;;;;;0.60;0.60;;;10.40;99.90;;;;;;5088632;28;20042;-86
2022/10/18 08:01:06;;;;;;;0.93;0.50;;;10.50;99.90;;;;;;5084753;28;20044;-84
2022/10/18 08:03:32;;;;;;;0.52;0.52;;;10.60;99.90;;;;;;5086435;28;20501;-84
2022/10/18 08:05:58;;;;;;;0.50;0.50;;;10.60;99.90;;;;;;5087916;28;20040;-86
2022/10/18 08:08:24;;;;;;;0.95;0.95;;;10.70;99.90;;;;;;5067597;28;20362;-85
2022/10/18 08:10:50;;;;;;;0.30;0.30;;;10.70;99.90;;;;;;5104333;28;20127;-86
2022/10/18 08:13:16;;;;;;;1.38;1.27;;;10.70;99.90;;;;;;5093317;28;20123;-87
2022/10/18 08:15:42;;;;;;;;;;;10.70;99.90;;;;;;5093020;28;20043;-86
2022/10/18 08:18:09;;;;;;;0.30;0.30;;;10.80;99.90;;;;;;5047648;28;19924;-86
2022/10/18 08:20:35;;;;;;;0.43;0.43;;;10.80;99.90;;;;;;5070266;28;20036;-86
2022/10/18 08:23:02;;;;;;;0.30;0.30;;;10.90;99.90;;;;;;5072253;28;20040;-87
2022/10/18 08:25:29;;;;;;;0.40;0.40;;;10.90;99.90;;;;;;5085713;28;20043;-86
2022/10/18 08:27:54;;;;;;;0.40;0.40;;;11.00;99.90;;;;;;5076680;28;20048;-85
2022/10/18 08:30:22;;;;;;;0.47;0.47;;;11.10;99.90;;;;;;5057888;28;20370;-85
2022/10/18 08:32:47;;;;;;;0.20;0.20;;;11.10;99.90;;;;;;5073692;28;20066;-85
2022/10/18 08:35:13;;;;;;;0.45;0.45;;;11.10;99.90;;;;;;5075800;28;20048;-85
2022/10/18 08:37:39;;;;;;;0.40;0.40;;;11.30;99.90;;;;;;5089199;28;20040;-85
2022/10/18 08:40:05;;;;;;;1.10;1.10;;;11.40;99.90;;;;;;5069984;28;20478;-85
2022/10/18 08:42:37;;;;;;;0.32;0.32;;;11.40;99.90;;;;;;5084777;28;20076;-85
2022/10/18 08:45:04;;;;;;;0.40;0.40;;;11.50;99.90;;;;;;5073169;28;20077;-85
2022/10/18 08:47:35;;;;;;;0.38;0.38;;;11.60;99.90;;;;;;5095669;28;20047;-85
2022/10/18 08:50:12;;;;;;;0.15;0.15;;;11.70;99.90;;;;;;5085505;28;20082;-85
2022/10/18 08:52:43;;;;;;;;;;;11.80;99.90;;;;;;5093837;28;22534;-84
2022/10/18 08:55:27;;;;;;;0.52;0.52;;;11.90;99.90;;;;;;5076469;28;20247;-84
2022/10/18 08:57:56;;;;;;;0.65;0.65;;;11.90;99.90;;;;;;5092553;28;20093;-84
2022/10/18 09:00:24;;;;;;;1.50;0.80;;;12.00;99.90;;;;;;5094306;28;20077;-84
2022/10/18 09:03:08;;;;;;;0.40;0.40;;;12.10;99.90;;;;;;5076709;28;20036;-84
2022/10/18 09:05:55;;;;;;;0.30;0.30;;;12.20;99.90;;;;;;5079324;28;20044;-84
2022/10/18 09:08:53;;;;;;;0.30;0.30;;;12.20;99.90;;;;;;5087928;28;20085;-85
2022/10/18 09:11:38;;;;;;;0.38;0.38;;;12.40;99.90;;;;;;5089931;28;20069;-85
2022/10/18 09:14:38;;;;;;;0.70;0.70;;;12.40;99.90;;;;;;5085781;28;20052;-85
2022/10/18 09:17:21;;;;;;;1.05;1.05;;;12.50;99.90;;;;;;5087787;28;20054;-85
2022/10/18 09:20:05;;;;;;;0.40;0.40;;;12.60;99.90;;;;;;5091869;28;20389;-84
2022/10/18 09:22:40;;;;;;;0.30;0.30;;;12.70;99.90;;;;;;5091190;28;20473;-84
2022/10/18 09:25:21;;;;;;;0.40;0.40;;;12.70;99.90;;;;;;5069883;28;20062;-85
2022/10/18 09:27:52;;;;;;;0.68;0.68;;;12.80;99.90;;;;;;5092056;28;20459;-85
2022/10/18 09:31:00;;;;;;;0.30;0.30;;;12.90;99.90;;;;;;5075188;28;20048;-85
2022/10/18 09:33:40;;;;;;;0.30;0.30;;;13.00;99.90;;;;;;5074971;28;20048;-85
2022/10/18 09:36:20;;;;;;;0.30;0.30;;;13.10;99.90;;;;;;5072535;28;20040;-85
2022/10/18 09:38:51;;;;;;;0.40;0.40;;;13.20;99.90;;;;;;5078338;28;20409;-84
2022/10/18 09:41:40;;;;;;;0.30;0.30;;;13.30;99.90;;;;;;5092979;28;20100;-84
2022/10/18 09:44:08;;;;;;;0.57;0.57;;;13.40;99.90;;;;;;5085310;28;20151;-83
2022/10/18 09:46:42;;;;;;;0.30;0.30;;;13.40;99.90;;;;;;5068844;28;20039;-84
2022/10/18 09:49:30;;;;;;;1.17;1.17;;;13.50;99.90;;;;;;5075165;28;20392;-84
2022/10/18 09:52:00;;;;;;;0.30;0.30;;;13.60;99.90;;;;;;5086901;28;20039;-82
2022/10/18 09:54:39;;;;;;;0.30;0.30;;;13.70;99.90;;;;;;5076691;28;20044;-84
2022/10/18 09:57:31;;;;;;;0.40;0.40;;;13.80;99.90;;;;;;5088350;28;20085;-83
2022/10/18 09:59:58;;;;;;;0.73;0.70;;;13.90;99.90;;;;;;5063584;28;20079;-84
2022/10/18 10:02:24;;;;;;;0.20;0.20;;;14.00;99.90;;;;;;5073122;28;20117;-84
2022/10/18 10:04:53;;;;;;;0.30;0.30;;;14.10;99.90;;;;;;5091869;28;20067;-84
2022/10/18 10:07:27;;;;;;;0.30;0.30;;;14.20;99.90;;;;;;5084703;28;20044;-85
2022/10/18 10:10:06;;;;;;;0.40;0.40;;;14.30;99.90;;;;;;5086301;28;20044;-86
2022/10/18 10:12:37;;;;;;;0.20;0.20;;;14.40;99.90;;;;;;5079747;28;20328;-83
2022/10/18 10:15:24;;;;;;;0.30;0.30;;;14.50;99.90;;;;;;5063279;28;20047;-84
2022/10/18 10:18:00;;;;;;;0.30;0.30;;;14.60;99.90;;;;;;5077811;28;20043;-84
2022/10/18 10:20:45;;;;;;;0.43;0.43;;;14.80;99.90;;;;;;5058322;28;20044;-85
2022/10/18 10:23:53;;;;;;;0.43;0.43;;;14.90;99.90;;;;;;5057974;28;20040;-83
2022/10/18 10:26:21;;;;;;;1.02;1.02;;;15.00;99.90;;;;;;5031203;28;20048;-86
2022/10/18 10:28:47;;;;;;;0.40;0.40;;;15.10;99.90;;;;;;5092304;28;20377;-85
2022/10/18 10:31:25;;;;;;;;;;;15.30;99.90;;;;;;5078892;28;20446;-86
2022/10/18 10:34:10;;;;;;;0.43;0.43;;;15.40;99.90;;;;;;5081987;28;20414;-85
2022/10/18 10:36:46;;;;;;;0.57;0.57;;;15.30;99.90;;;;;;5091069;28;20071;-84
2022/10/18 10:39:18;;;;;;;1.20;1.15;;;15.40;99.90;;;;;;5084279;28;20056;-83
2022/10/18 10:41:52;;;;;;;0.20;0.20;;;15.40;99.90;;;;;;5070867;28;20060;-83
2022/10/18 10:44:20;;;;;;;0.17;0.17;;;15.50;99.90;;;;;;5084891;28;20036;-85
2022/10/18 10:46:48;;;;;;;1.30;1.30;;;15.60;99.90;;;;;;5075653;28;20040;-85
2022/10/18 10:49:44;;;;;;;0.32;0.32;;;15.70;99.90;;;;;;5071091;28;20036;-85
2022/10/18 10:52:19;;;;;;;0.45;0.45;;;15.60;99.90;;;;;;5086239;28;20044;-85
2022/10/18 10:54:45;;;;;;;0.70;0.70;;;15.50;99.90;;;;;;5103991;28;20040;-83
2022/10/18 10:57:11;;;;;;;0.20;0.20;;;15.40;99.90;;;;;;5082075;28;20048;-86
2022/10/18 10:59:45;;;;;;;0.38;0.38;;;15.20;99.90;;;;;;5086777;28;20096;-84
2022/10/18 11:02:15;;;;;;;0.30;0.30;;;15.20;99.90;;;;;;5068392;28;20061;-83
2022/10/18 11:04:43;;;;;;;0.40;0.40;;;15.30;99.90;;;;;;5091597;28;20072;-83
2022/10/18 11:07:08;;;;;;;0.30;0.30;;;15.40;99.90;;;;;;5073455;28;20481;-84
2022/10/18 11:09:49;;;;;;;0.60;0.60;;;15.60;99.90;;;;;;5088581;28;20126;-85
2022/10/18 11:12:25;;;;;;;0.20;0.20;;;15.90;99.90;;;;;;5086948;28;20044;-85
2022/10/18 11:15:10;;;;;;;0.20;0.20;;;16.00;99.90;;;;;;5064492;28;20078;-84
2022/10/18 11:18:01;;;;;;;0.30;0.30;;;16.10;99.90;;;;;;5078411;28;20044;-85
2022/10/18 11:20:34;;;;;;;0.40;0.40;;;16.00;99.90;;;;;;5070311;28;20036;-84
2022/10/18 11:23:16;;;;;;;0.40;0.40;;;15.80;99.90;;;;;;5087151;28;20123;-84
2022/10/18 11:25:59;;;;;;;0.75;0.75;;;15.60;99.90;;;;;;5094186;28;20455;-85
2022/10/18 11:28:40;;;;;;;0.30;0.30;;;15.60;99.90;;;;;;5090571;28;20044;-85
2022/10/18 11:31:26;;;;;;;1.30;1.27;;;15.80;99.90;;;;;;5087840;28;20055;-84
2022/10/18 11:34:04;;;;;;;0.85;0.65;;;15.80;99.90;;;;;;5090233;28;20059;-83
2022/10/18 11:36:37;;;;;;;0.40;0.40;;;15.90;99.90;;;;;;5090847;28;20080;-85
2022/10/18 11:39:13;;;;;;;0.35;0.35;;;15.90;99.90;;;;;;5072219;28;20096;-83
2022/10/18 11:41:59;;;;;;;0.98;0.98;;;15.90;99.90;;;;;;5088626;28;20086;-86
2022/10/18 11:44:59;;;;;;;0.40;0.40;;;16.00;99.90;;;;;;5087600;28;20040;-84
2022/10/18 11:47:44;;;;;;;0.35;0.35;;;16.30;99.90;;;;;;5094501;28;20040;-83
2022/10/18 11:50:29;;;;;;;0.30;0.30;;;16.60;99.90;;;;;;5083575;28;20123;-86
2022/10/18 11:53:01;;;;;;;0.90;0.90;;;16.50;99.90;;;;;;5093367;28;20080;-82
2022/10/18 11:55:41;;;;;;;0.30;0.30;;;16.10;99.90;;;;;;5076041;28;20032;-84
2022/10/18 11:58:07;;;;;;;3.80;1.17;;;15.90;99.90;;;;;;5065001;28;20123;-84
2022/10/18 12:01:02;;;;;;;0.10;0.10;;;15.90;99.90;;;;;;5098702;28;20060;-82
2022/10/18 12:03:33;;;;;;;0.20;0.20;;;16.00;99.90;;;;;;5084949;28;20067;-84
2022/10/18 12:06:05;;;;;;;0.30;0.30;;;16.00;99.90;;;;;;5090440;28;20123;-83
2022/10/18 12:08:38;;;;;;;0.30;0.30;;;16.10;99.90;;;;;;5084932;28;20039;-81
2022/10/18 12:11:28;;;;;;;0.90;0.88;;;16.20;99.90;;;;;;5076624;28;20048;-83
2022/10/18 12:13:59;;;;;;;1.65;0.95;;;16.30;99.90;;;;;;5079074;28;20036;-86
2022/10/18 12:16:33;;;;;;;0.30;0.30;;;16.30;99.90;;;;;;5079079;28;20438;-83
2022/10/18 12:19:03;;;;;;;0.90;0.90;;;16.20;99.90;;;;;;5075922;28;21333;-84
2022/10/18 12:21:32;;;;;;;0.30;0.30;;;16.10;99.90;;;;;;5069815;28;20048;-83
2022/10/18 12:24:20;;;;;;;1.23;1.15;;;16.00;99.90;;;;;;5068183;28;20040;-83
2022/10/18 12:26:48;;;;;;;16.08;1.65;;;16.00;99.90;;;;;;5087684;28;20516;-83
2022/10/18 12:29:23;;;;;;;0.40;0.40;;;16.20;99.90;;;;;;5064035;28;20036;-83
2022/10/18 12:31:57;;;;;;;0.20;0.20;;;16.30;99.90;;;;;;5082167;28;20048;-85
2022/10/18 12:34:38;;;;;;;0.20;0.20;;;16.50;99.90;;;;;;5088091;28;20089;-84
2022/10/18 12:37:03;;;;;;;0.30;0.30;;;16.60;99.90;;;;;;5084925;28;20055;-82
2022/10/18 12:39:33;;;;;;;0.20;0.20;;;16.70;99.90;;;;;;5086226;28;20090;-82
2022/10/18 12:41:59;;;;;;;0.30;0.30;;;16.60;99.90;;;;;;5086374;28;20048;-81
2022/10/18 12:44:32;;;;;;;0.40;0.40;;;16.60;99.90;;;;;;5096956;28;20065;-83
2022/10/18 12:47:03;;;;;;;3.50;1.75;;;16.60;99.90;;;;;;5077361;28;20040;-84
2022/10/18 12:49:37;;;;;;;0.40;0.40;;;16.60;99.90;;;;;;5092643;28;20036;-85
2022/10/18 12:52:23;;;;;;;0.30;0.30;;;16.80;99.90;;;;;;5079855;28;20063;-84
2022/10/18 12:55:18;;;;;;;0.60;0.60;;;16.90;99.90;;;;;;5086417;28;20504;-86
2022/10/18 12:57:53;;;;;;;1.10;0.40;;;16.80;99.90;;;;;;5077215;28;20060;-86
2022/10/18 13:00:30;;;;;;;0.30;0.30;;;16.60;99.90;;;;;;5079515;28;20056;-85
2022/10/18 13:03:11;;;;;;;0.20;0.20;;;16.30;99.90;;;;;;5091612;28;20084;-83
2022/10/18 13:05:46;;;;;;;0.60;0.60;;;16.00;99.90;;;;;;5088839;28;20039;-85
2022/10/18 13:08:30;;;;;;;0.47;0.45;;;15.70;99.90;;;;;;5074619;28;20079;-84
2022/10/18 13:11:08;;;;;;;0.22;0.22;;;15.50;99.90;;;;;;5077402;28;20123;-85